Time;durP1;ratioP1;P1;durP2;ratioP2;P2;SDS_P1;SDS_P2;PMS_P1;PMS_P2;Temp;Humidity;BMP_temperature;BMP_pressure;BME280_temperature;BME280_humidity;BME280_pressure;Samples;Min_cycle;Max_cycle;Signal;HPM_P1;HPM_P2
2023/03/16 00:01:04;;;;;;;7.67;3.50;;;-2.20;99.90;;;;;;8364752;28;20258;-66
2023/03/16 00:05:05;;;;;;;8.50;4.10;;;-2.20;99.90;;;;;;8359770;28;20186;-66
2023/03/16 00:09:06;;;;;;;4.10;3.23;;;-2.20;99.90;;;;;;8359403;28;20272;-66
2023/03/16 00:13:06;;;;;;;8.27;3.13;;;-2.20;99.90;;;;;;8365288;28;20177;-66
2023/03/16 00:17:07;;;;;;;7.67;3.17;;;-2.20;99.90;;;;;;8359433;28;20212;-66
2023/03/16 00:21:08;;;;;;;4.73;3.10;;;-2.20;99.90;;;;;;8363219;28;20202;-66
2023/03/16 00:25:11;;;;;;;8.27;3.03;;;-2.20;99.90;;;;;;8363541;28;20673;-66
2023/03/16 00:29:12;;;;;;;7.13;3.50;;;-2.10;99.90;;;;;;8364439;28;20186;-65
2023/03/16 00:33:13;;;;;;;10.37;3.70;;;-2.10;99.90;;;;;;8367364;28;20241;-66
2023/03/16 00:37:16;;;;;;;9.27;3.17;;;-2.00;99.90;;;;;;8372756;28;20284;-66
2023/03/16 00:41:17;;;;;;;6.93;3.37;;;-2.00;99.90;;;;;;8366089;28;20257;-66
2023/03/16 00:45:17;;;;;;;6.23;3.47;;;-2.00;99.90;;;;;;8368093;28;20201;-66
2023/03/16 00:49:18;;;;;;;6.37;3.10;;;-2.10;99.90;;;;;;8366311;28;20228;-66
2023/03/16 00:53:21;;;;;;;5.43;3.10;;;-2.10;99.90;;;;;;8366515;28;20194;-66
2023/03/16 00:57:24;;;;;;;5.77;2.83;;;-2.20;99.90;;;;;;8368696;28;20210;-66
2023/03/16 01:01:26;;;;;;;8.80;2.70;;;-2.20;99.90;;;;;;8364775;28;20184;-65
2023/03/16 01:05:27;;;;;;;4.20;2.57;;;-2.10;99.90;;;;;;8365380;28;20185;-65
2023/03/16 01:09:28;;;;;;;7.80;2.53;;;-2.20;99.90;;;;;;8366755;28;20213;-65
2023/03/16 01:13:29;;;;;;;8.37;3.10;;;-2.30;99.90;;;;;;8379698;28;20267;-66
2023/03/16 01:17:33;;;;;;;4.43;2.77;;;-2.40;99.90;;;;;;8377611;28;20220;-67
2023/03/16 01:21:37;;;;;;;4.83;2.77;;;-2.40;99.90;;;;;;8361768;28;20181;-66
2023/03/16 01:25:37;;;;;;;4.43;2.60;;;-2.40;99.90;;;;;;8367164;28;20182;-65
2023/03/16 01:29:39;;;;;;;4.70;2.37;;;-2.40;99.90;;;;;;8363980;28;20193;-67
2023/03/16 01:33:40;;;;;;;4.87;2.50;;;-2.50;99.90;;;;;;8365272;28;20189;-67
2023/03/16 01:37:41;;;;;;;4.63;2.73;;;-2.50;99.90;;;;;;8361435;28;20213;-67
2023/03/16 01:41:44;;;;;;;4.93;2.50;;;-2.50;99.90;;;;;;8366769;28;20482;-66
2023/03/16 01:46:03;;;;;;;9.43;2.90;;;-2.60;99.90;;;;;;8379126;28;20202;-66
2023/03/16 01:50:06;;;;;;;5.57;2.63;;;-2.70;99.90;;;;;;8371529;28;20190;-67
2023/03/16 01:54:22;;;;;;;4.57;2.77;;;-2.70;99.90;;;;;;8363693;28;20185;-66
2023/03/16 01:58:23;;;;;;;5.80;2.50;;;-2.80;99.90;;;;;;8366637;28;20552;-68
2023/03/16 02:02:29;;;;;;;7.40;2.80;;;-2.80;99.90;;;;;;8363924;28;20524;-67
2023/03/16 02:06:31;;;;;;;4.30;2.80;;;-2.70;99.90;;;;;;8363949;28;20177;-67
2023/03/16 02:10:33;;;;;;;6.67;3.17;;;-2.70;99.90;;;;;;8368324;28;20190;-66
2023/03/16 02:14:34;;;;;;;5.43;2.70;;;-2.70;99.90;;;;;;8365130;28;20201;-68
2023/03/16 02:18:36;;;;;;;7.23;2.97;;;-2.70;99.90;;;;;;8364900;28;20185;-67
2023/03/16 02:22:46;;;;;;;6.73;2.70;;;-2.70;99.90;;;;;;8366995;28;20185;-67
2023/03/16 02:26:58;;;;;;;5.57;2.60;;;-2.70;99.90;;;;;;8362680;28;20184;-67
2023/03/16 02:31:00;;;;;;;4.27;2.80;;;-2.60;99.90;;;;;;8370079;28;20620;-67
2023/03/16 02:35:02;;;;;;;9.87;2.80;;;-2.60;99.90;;;;;;8359990;28;20203;-67
2023/03/16 02:39:04;;;;;;;5.50;2.77;;;-2.50;99.90;;;;;;8363225;28;20173;-67
2023/03/16 02:43:19;;;;;;;7.17;3.30;;;-2.30;99.90;;;;;;8363799;28;20189;-71
2023/03/16 02:47:42;;;;;;;4.37;2.97;;;-2.20;99.90;;;;;;8364093;28;20265;-68
2023/03/16 02:51:44;;;;;;;5.43;2.70;;;-2.00;99.90;;;;;;8359842;28;20189;-67
2023/03/16 02:55:46;;;;;;;5.40;2.80;;;-2.00;99.90;;;;;;8364112;28;20205;-68
2023/03/16 02:59:46;;;;;;;8.73;3.10;;;-1.90;99.90;;;;;;8371809;28;20264;-67
2023/03/16 03:03:47;;;;;;;8.70;2.57;;;-1.80;99.90;;;;;;8362921;28;20188;-67
2023/03/16 03:07:48;;;;;;;4.17;2.20;;;-1.80;99.90;;;;;;8360384;28;20238;-67
2023/03/16 03:11:49;;;;;;;5.60;2.80;;;-1.70;99.90;;;;;;8361997;28;20191;-68
2023/03/16 03:15:51;;;;;;;5.70;2.73;;;-1.80;99.90;;;;;;8362581;28;20205;-67
2023/03/16 03:19:52;;;;;;;4.30;2.70;;;-1.80;99.90;;;;;;8362102;28;20179;-67
2023/03/16 03:23:53;;;;;;;6.83;2.37;;;-1.90;99.90;;;;;;8363633;28;20279;-67
2023/03/16 03:27:54;;;;;;;4.30;2.07;;;-2.10;99.90;;;;;;8364288;28;20223;-67
2023/03/16 03:31:55;;;;;;;4.53;2.20;;;-2.20;99.90;;;;;;8361952;28;20198;-68
2023/03/16 03:35:57;;;;;;;3.93;2.60;;;-2.30;99.90;;;;;;8361637;28;20221;-66
2023/03/16 03:39:58;;;;;;;6.97;2.93;;;-2.30;99.90;;;;;;8365990;28;20185;-68
2023/03/16 03:43:59;;;;;;;4.87;2.87;;;-2.40;99.90;;;;;;8367538;28;20194;-67
2023/03/16 03:48:00;;;;;;;3.70;2.80;;;-2.40;99.90;;;;;;8359449;28;20500;-67
2023/03/16 03:52:03;;;;;;;4.60;3.10;;;-2.30;99.90;;;;;;8360747;28;20890;-68
2023/03/16 03:56:04;;;;;;;7.23;2.63;;;-2.40;99.90;;;;;;8362454;28;20195;-67
2023/03/16 04:00:08;;;;;;;6.10;2.70;;;-2.50;99.90;;;;;;8366315;28;20233;-67
2023/03/16 04:04:09;;;;;;;5.43;3.00;;;-2.50;99.90;;;;;;8373685;28;20188;-67
2023/03/16 04:08:10;;;;;;;6.07;2.90;;;-2.50;99.90;;;;;;8373663;28;20276;-67
2023/03/16 04:12:11;;;;;;;8.70;3.40;;;-2.60;99.90;;;;;;8371385;28;20185;-68
2023/03/16 04:16:15;;;;;;;6.67;2.73;;;-2.60;99.90;;;;;;8369059;28;20219;-68
2023/03/16 04:20:18;;;;;;;6.90;3.40;;;-2.60;99.90;;;;;;8372185;28;20216;-67
2023/03/16 04:24:19;;;;;;;5.33;3.30;;;-2.70;99.90;;;;;;8368315;28;20212;-68
2023/03/16 04:28:20;;;;;;;5.10;3.33;;;-2.70;99.90;;;;;;8373523;28;20200;-67
2023/03/16 04:32:20;;;;;;;7.47;3.23;;;-2.80;99.90;;;;;;8373476;28;20177;-68
2023/03/16 04:36:23;;;;;;;6.33;2.93;;;-2.80;99.90;;;;;;8375618;28;20282;-67
2023/03/16 04:40:24;;;;;;;6.37;3.40;;;-2.80;99.90;;;;;;8377524;28;20190;-67
2023/03/16 04:44:25;;;;;;;6.30;3.77;;;-2.80;99.90;;;;;;8373873;28;20312;-67
2023/03/16 04:48:28;;;;;;;8.20;3.50;;;-2.80;99.90;;;;;;8376234;28;20189;-67
2023/03/16 04:52:29;;;;;;;6.00;3.43;;;-2.80;99.90;;;;;;8370964;28;20181;-67
2023/03/16 04:56:30;;;;;;;6.30;3.57;;;-2.80;99.90;;;;;;8374391;28;20216;-67
2023/03/16 05:00:31;;;;;;;6.10;4.13;;;-2.90;99.90;;;;;;8374847;28;20188;-72
2023/03/16 05:04:33;;;;;;;8.43;4.03;;;-2.90;99.90;;;;;;8373869;28;20589;-68
2023/03/16 05:08:34;;;;;;;9.53;4.27;;;-2.80;99.90;;;;;;8373346;28;20174;-67
2023/03/16 05:12:34;;;;;;;7.73;4.77;;;-2.80;99.90;;;;;;8366649;28;20185;-68
2023/03/16 05:16:35;;;;;;;9.27;4.27;;;-2.70;99.90;;;;;;8368639;28;20212;-68
2023/03/16 05:20:36;;;;;;;9.33;4.40;;;-2.60;99.90;;;;;;8369013;28;20189;-68
2023/03/16 05:24:37;;;;;;;9.03;4.97;;;-2.60;99.90;;;;;;8367932;28;20264;-71
2023/03/16 05:28:38;;;;;;;9.00;5.20;;;-2.50;99.90;;;;;;8365529;28;20218;-71
2023/03/16 05:32:39;;;;;;;10.37;5.13;;;-2.40;99.90;;;;;;8368305;28;20194;-71
2023/03/16 05:36:40;;;;;;;10.27;5.40;;;-2.40;99.90;;;;;;8369442;28;20306;-71
2023/03/16 05:40:41;;;;;;;9.10;5.33;;;-2.30;99.90;;;;;;8364897;28;20181;-71
2023/03/16 05:44:43;;;;;;;13.30;6.17;;;-2.30;99.90;;;;;;8366503;28;20282;-71
2023/03/16 05:48:44;;;;;;;8.73;4.80;;;-2.20;99.90;;;;;;8363653;28;20191;-71
2023/03/16 05:52:45;;;;;;;9.93;4.57;;;-2.20;99.90;;;;;;8373937;28;20187;-70
2023/03/16 05:56:46;;;;;;;8.37;5.20;;;-2.10;99.90;;;;;;8367995;28;20209;-72
2023/03/16 06:00:47;;;;;;;11.57;5.03;;;-2.00;99.90;;;;;;8373355;28;20325;-72
2023/03/16 06:04:47;;;;;;;10.00;5.00;;;-1.80;99.90;;;;;;8382942;28;20202;-73
2023/03/16 06:08:52;;;;;;;9.97;5.67;;;-1.60;99.90;;;;;;8407378;28;20187;-74
2023/03/16 06:12:53;;;;;;;12.87;6.13;;;-1.50;99.90;;;;;;8397152;28;20207;-73
2023/03/16 06:16:53;;;;;;;10.90;5.57;;;-1.40;99.90;;;;;;8414060;22;20230;-80
2023/03/16 06:20:54;;;;;;;11.43;5.93;;;-1.20;99.90;;;;;;8374162;28;20189;-80
2023/03/16 06:24:55;;;;;;;11.67;7.07;;;-1.10;99.90;;;;;;8369238;28;20186;-80
2023/03/16 06:28:56;;;;;;;9.37;5.87;;;-1.00;99.90;;;;;;8366700;28;20221;-80
2023/03/16 06:32:58;;;;;;;10.60;5.40;;;-0.80;99.90;;;;;;8365763;28;20220;-80
2023/03/16 06:36:59;;;;;;;10.60;5.90;;;-0.70;99.90;;;;;;8363242;28;20217;-80
2023/03/16 06:41:00;;;;;;;11.07;6.23;;;-0.60;99.90;;;;;;8367129;28;20192;-81
2023/03/16 06:45:01;;;;;;;14.27;7.00;;;-0.50;99.90;;;;;;8366987;28;20195;-80
2023/03/16 06:49:03;;;;;;;13.27;6.50;;;-0.40;99.90;;;;;;8369492;28;20209;-80
2023/03/16 06:53:04;;;;;;;11.53;6.53;;;-0.20;99.90;;;;;;8368963;28;20234;-80
2023/03/16 06:57:05;;;;;;;10.33;6.20;;;-0.10;99.90;;;;;;8372563;28;20197;-81
2023/03/16 07:01:05;;;;;;;14.50;5.67;;;0.00;99.90;;;;;;8371622;28;20193;-81
2023/03/16 07:05:07;;;;;;;15.33;6.00;;;0.10;99.90;;;;;;8374164;28;20197;-81
2023/03/16 07:09:08;;;;;;;12.37;6.47;;;0.30;99.90;;;;;;8374389;28;20194;-81
2023/03/16 07:13:09;;;;;;;11.00;5.43;;;0.40;99.90;;;;;;8411948;28;20215;-81
2023/03/16 07:17:31;;;;;;;11.80;6.00;;;0.50;99.90;;;;;;8414575;28;20232;-81
2023/03/16 07:21:38;;;;;;;10.77;5.67;;;0.60;99.90;;;;;;8402283;28;20178;-81
2023/03/16 07:25:39;;;;;;;9.10;5.33;;;0.70;99.90;;;;;;8408092;28;20193;-81
2023/03/16 07:29:40;;;;;;;10.50;5.40;;;1.00;99.90;;;;;;8381940;28;20189;-81
2023/03/16 07:33:41;;;;;;;9.67;5.00;;;1.10;99.90;;;;;;8373114;28;20185;-81
2023/03/16 07:37:41;;;;;;;8.80;4.87;;;1.20;99.90;;;;;;8372981;28;20210;-81
2023/03/16 07:41:43;;;;;;;7.70;4.77;;;1.40;99.90;;;;;;8365105;28;20256;-81
2023/03/16 07:45:48;;;;;;;9.77;3.97;;;1.60;99.90;;;;;;8366238;28;20197;-81
2023/03/16 07:49:49;;;;;;;5.73;3.27;;;1.70;99.90;;;;;;8366231;28;20288;-81
2023/03/16 07:53:50;;;;;;;6.60;3.57;;;1.90;99.90;;;;;;8371855;28;20193;-80
2023/03/16 07:57:51;;;;;;;5.60;3.40;;;2.10;65.20;;;;;;8366998;28;20217;-80
2023/03/16 08:01:52;;;;;;;6.17;3.20;;;2.30;43.60;;;;;;8361952;28;20184;-80
2023/03/16 08:05:54;;;;;;;7.47;3.47;;;2.50;23.70;;;;;;8369267;28;20185;-80
2023/03/16 08:09:54;;;;;;;6.83;2.97;;;2.70;1.00;;;;;;8365704;28;20186;-80
2023/03/16 08:13:56;;;;;;;5.70;2.97;;;2.80;99.90;;;;;;8370348;28;20215;-80
2023/03/16 08:17:58;;;;;;;6.23;2.40;;;3.00;15.80;;;;;;8361578;28;20213;-80
2023/03/16 08:22:00;;;;;;;4.13;2.57;;;3.10;1.00;;;;;;8363310;28;20210;-80
2023/03/16 08:26:00;;;;;;;8.73;2.93;;;3.20;1.00;;;;;;8381136;28;20200;-80
2023/03/16 08:30:04;;;;;;;5.03;2.23;;;3.40;99.90;;;;;;8361961;28;20188;-80
2023/03/16 08:34:05;;;;;;;7.40;2.77;;;3.60;99.90;;;;;;8372682;28;20649;-80
2023/03/16 08:38:06;;;;;;;6.03;2.47;;;3.80;99.90;;;;;;8365493;28;20212;-80
2023/03/16 08:42:07;;;;;;;3.87;2.33;;;4.00;99.90;;;;;;8371448;28;20182;-80
2023/03/16 08:46:08;;;;;;;7.03;2.67;;;4.30;99.90;;;;;;8369729;28;20192;-80
2023/03/16 08:50:14;;;;;;;7.13;2.67;;;4.50;99.90;;;;;;8369043;28;20189;-80
2023/03/16 08:54:16;;;;;;;6.23;2.23;;;4.50;99.90;;;;;;8372431;28;20314;-80
2023/03/16 08:58:17;;;;;;;3.87;2.43;;;4.40;99.90;;;;;;8373619;28;20204;-80
2023/03/16 09:02:19;;;;;;;6.27;2.50;;;4.70;99.90;;;;;;8372627;28;20188;-81
2023/03/16 09:06:21;;;;;;;6.53;2.30;;;4.80;99.90;;;;;;8368603;28;20192;-81
2023/03/16 09:10:22;;;;;;;7.20;2.23;;;4.90;99.90;;;;;;8370830;28;20189;-81
2023/03/16 09:14:24;;;;;;;5.47;1.60;;;5.00;99.90;;;;;;8369439;28;20173;-81
2023/03/16 09:18:26;;;;;;;5.40;2.30;;;5.00;59.00;;;;;;8372559;28;20213;-81
2023/03/16 09:22:27;;;;;;;5.97;2.00;;;5.00;39.40;;;;;;8373113;28;20181;-81
2023/03/16 09:26:28;;;;;;;5.73;1.77;;;5.20;98.60;;;;;;8372551;28;20193;-80
2023/03/16 09:30:29;;;;;;;8.97;1.87;;;5.40;55.20;;;;;;8369490;28;20284;-80
2023/03/16 09:34:30;;;;;;;4.17;1.47;;;5.70;27.10;;;;;;8368661;28;20225;-80
2023/03/16 09:38:31;;;;;;;5.87;1.13;;;6.00;1.00;;;;;;8372921;28;20182;-80
2023/03/16 09:42:42;;;;;;;3.27;1.43;;;6.10;1.00;;;;;;8373032;28;20201;-80
2023/03/16 09:46:46;;;;;;;4.53;1.40;;;6.20;1.00;;;;;;8370748;28;20185;-81
2023/03/16 09:50:50;;;;;;;5.87;1.50;;;6.40;1.00;;;;;;8385424;28;20300;-82
2023/03/16 09:55:02;;;;;;;3.10;1.10;;;6.50;1.00;;;;;;8384643;28;20209;-81
2023/03/16 09:59:12;;;;;;;4.13;1.33;;;6.60;1.00;;;;;;8406487;28;20208;-81
2023/03/16 10:03:39;;;;;;;4.00;1.40;;;6.70;1.00;;;;;;8428398;28;20190;-82
2023/03/16 10:07:51;;;;;;;4.63;1.53;;;6.50;1.00;;;;;;8411629;28;20194;-82
2023/03/16 10:11:57;;;;;;;3.27;1.23;;;6.40;1.00;;;;;;8415274;28;20237;-82
2023/03/16 10:16:02;;;;;;;3.83;1.13;;;6.60;1.00;;;;;;8383380;28;20232;-81
2023/03/16 10:20:09;;;;;;;9.00;1.20;;;6.50;1.00;;;;;;8365732;28;20212;-81
2023/03/16 10:24:55;;;;;;;3.67;1.07;;;6.50;1.00;;;;;;8359774;28;20254;-81
2023/03/16 10:28:55;;;;;;;3.67;1.10;;;6.80;1.00;;;;;;8314359;28;20198;-81
2023/03/16 10:33:02;;;;;;;2.97;0.83;;;6.90;1.00;;;;;;8366030;28;20178;-81
2023/03/16 10:37:04;;;;;;;3.80;1.27;;;6.70;1.00;;;;;;8370064;28;20224;-80
2023/03/16 10:41:21;;;;;;;4.00;1.00;;;6.80;1.00;;;;;;8372086;28;20187;-80
2023/03/16 10:45:28;;;;;;;2.97;1.27;;;7.20;1.00;;;;;;8366801;28;21166;-80
2023/03/16 10:49:35;;;;;;;2.23;0.70;;;7.40;1.00;;;;;;8369016;28;20276;-80
2023/03/16 10:53:39;;;;;;;2.53;0.80;;;7.50;1.00;;;;;;8373205;28;20192;-80
2023/03/16 10:57:42;;;;;;;5.10;1.00;;;7.60;1.00;;;;;;8372793;28;20299;-79
2023/03/16 11:01:51;;;;;;;4.10;0.90;;;7.40;1.00;;;;;;8367168;28;20190;-80
2023/03/16 11:06:04;;;;;;;4.40;1.20;;;7.60;1.00;;;;;;8368167;28;20186;-80
2023/03/16 11:10:35;;;;;;;3.80;1.40;;;7.70;1.00;;;;;;8367944;28;20216;-80
2023/03/16 11:14:36;;;;;;;2.43;0.80;;;7.90;1.00;;;;;;8386431;28;20191;-80
2023/03/16 11:18:46;;;;;;;2.97;1.00;;;7.30;1.00;;;;;;8365621;28;20201;-80
2023/03/16 11:22:47;;;;;;;2.40;1.00;;;7.20;1.00;;;;;;8365062;28;20186;-80
2023/03/16 11:26:54;;;;;;;4.03;1.57;;;7.30;1.00;;;;;;8362872;28;20196;-80
2023/03/16 11:31:23;;;;;;;1.90;1.00;;;7.30;1.00;;;;;;8370088;28;20189;-80
2023/03/16 11:35:50;;;;;;;2.67;1.10;;;7.30;1.00;;;;;;8366627;28;20218;-80
2023/03/16 11:40:13;;;;;;;3.43;0.90;;;7.50;1.00;;;;;;8365532;28;20213;-81
2023/03/16 11:44:32;;;;;;;1.93;0.80;;;7.60;1.00;;;;;;8366807;28;20209;-80
2023/03/16 11:48:58;;;;;;;2.30;0.90;;;7.70;1.00;;;;;;8365648;28;20181;-82
2023/03/16 11:53:10;;;;;;;1.60;0.90;;;7.90;1.00;;;;;;8375047;28;20196;-81
2023/03/16 11:57:39;;;;;;;1.90;0.70;;;8.00;1.00;;;;;;8367645;28;20224;-81
2023/03/16 12:01:41;;;;;;;3.00;1.10;;;8.10;1.00;;;;;;8363545;28;20194;-81
2023/03/16 12:06:20;;;;;;;2.67;1.00;;;7.80;1.00;;;;;;8369929;28;20193;-81
2023/03/16 12:10:37;;;;;;;3.33;0.87;;;7.70;1.00;;;;;;8373416;28;20189;-81
2023/03/16 12:14:54;;;;;;;6.23;1.10;;;7.60;1.00;;;;;;8370774;28;20256;-80
2023/03/16 12:19:06;;;;;;;1.83;0.80;;;7.70;1.00;;;;;;8349752;28;20202;-81
2023/03/16 12:23:14;;;;;;;3.93;1.10;;;7.90;1.00;;;;;;8373693;28;20275;-81
2023/03/16 12:27:29;;;;;;;2.20;1.20;;;8.20;1.00;;;;;;8391109;28;20201;-82
2023/03/16 12:31:44;;;;;;;2.90;0.87;;;8.30;1.00;;;;;;8377336;28;20190;-81
2023/03/16 12:35:58;;;;;;;2.50;1.03;;;8.20;1.00;;;;;;8372224;28;20220;-81
2023/03/16 12:40:08;;;;;;;3.40;1.20;;;8.00;1.00;;;;;;8369875;28;20182;-80
2023/03/16 12:44:36;;;;;;;2.90;1.17;;;8.10;1.00;;;;;;8378410;28;20291;-82
2023/03/16 12:48:50;;;;;;;3.13;1.17;;;7.90;1.00;;;;;;8378396;28;20219;-81
2023/03/16 12:52:52;;;;;;;4.77;1.17;;;8.10;1.00;;;;;;8377011;28;20181;-81
2023/03/16 12:57:04;;;;;;;1.73;0.87;;;8.40;1.00;;;;;;8386259;28;20214;-81
2023/03/16 13:01:09;;;;;;;2.10;1.00;;;8.70;1.00;;;;;;8387852;28;20193;-81
2023/03/16 13:05:13;;;;;;;2.83;1.37;;;8.70;1.00;;;;;;8415293;28;20263;-82
2023/03/16 13:09:24;;;;;;;1.97;0.80;;;8.50;1.00;;;;;;8422579;28;20177;-82
2023/03/16 13:13:26;;;;;;;6.00;1.20;;;8.40;1.00;;;;;;8428205;28;20216;-80
2023/03/16 13:17:31;;;;;;;1.70;0.70;;;8.50;1.00;;;;;;8416470;28;20224;-81
2023/03/16 13:21:40;;;;;;;2.83;0.90;;;8.60;1.00;;;;;;8406927;28;20450;-80
2023/03/16 13:26:02;;;;;;;6.30;0.93;;;8.50;1.00;;;;;;8370536;28;20182;-80
2023/03/16 13:30:21;;;;;;;3.87;0.90;;;8.60;1.00;;;;;;8352621;28;20193;-81
2023/03/16 13:34:26;;;;;;;2.67;0.70;;;8.70;1.00;;;;;;8376342;28;20205;-81
2023/03/16 13:38:27;;;;;;;3.43;0.67;;;8.70;1.00;;;;;;8368095;28;20221;-81
2023/03/16 13:42:31;;;;;;;1.93;0.80;;;8.60;1.00;;;;;;8372615;28;20192;-80
2023/03/16 13:46:32;;;;;;;2.33;0.93;;;8.70;1.00;;;;;;8367098;28;20526;-79
2023/03/16 13:50:35;;;;;;;2.90;0.60;;;8.80;1.00;;;;;;8370892;28;21326;-81
2023/03/16 13:54:36;;;;;;;2.93;0.80;;;8.90;1.00;;;;;;8364606;28;20194;-80
2023/03/16 13:58:38;;;;;;;2.03;0.80;;;9.10;1.00;;;;;;8369335;28;20206;-80
2023/03/16 14:02:44;;;;;;;3.63;0.90;;;9.20;1.00;;;;;;8366796;28;20200;-80
2023/03/16 14:07:02;;;;;;;1.70;0.50;;;9.30;1.00;;;;;;8365851;28;20188;-80
2023/03/16 14:11:03;;;;;;;2.03;0.57;;;9.20;1.00;;;;;;8370256;28;20175;-81
2023/03/16 14:15:05;;;;;;;2.03;0.70;;;9.30;1.00;;;;;;8366311;28;20207;-81
2023/03/16 14:19:21;;;;;;;2.43;0.90;;;9.20;1.00;;;;;;8368786;28;20304;-81
2023/03/16 14:23:32;;;;;;;2.90;1.07;;;9.20;1.00;;;;;;8370129;28;20184;-81
2023/03/16 14:27:39;;;;;;;2.80;0.70;;;9.10;1.00;;;;;;8369570;28;20475;-81
2023/03/16 14:31:40;;;;;;;4.90;0.93;;;9.10;1.00;;;;;;8365531;28;20186;-80
2023/03/16 14:35:42;;;;;;;1.70;0.73;;;9.10;1.00;;;;;;8368652;28;20198;-80
2023/03/16 14:39:44;;;;;;;2.50;0.80;;;9.20;1.00;;;;;;8368927;28;20242;-80
2023/03/16 14:43:51;;;;;;;1.70;0.70;;;9.20;1.00;;;;;;8369895;28;20179;-81
2023/03/16 14:47:52;;;;;;;2.20;0.83;;;9.20;1.00;;;;;;8366567;28;20179;-81
2023/03/16 14:52:00;;;;;;;2.80;0.60;;;9.30;1.00;;;;;;8369831;28;20235;-81
2023/03/16 14:56:02;;;;;;;3.37;1.07;;;9.30;1.00;;;;;;8367989;28;20203;-81
2023/03/16 15:00:04;;;;;;;2.90;0.87;;;9.20;1.00;;;;;;8367879;28;20679;-80
2023/03/16 15:04:06;;;;;;;1.70;0.90;;;9.20;1.00;;;;;;8367702;28;20529;-81
2023/03/16 15:08:22;;;;;;;1.87;0.70;;;9.10;1.00;;;;;;8365113;28;20187;-81
2023/03/16 15:12:26;;;;;;;1.73;0.93;;;9.10;1.00;;;;;;8386444;28;20227;-81
2023/03/16 15:16:26;;;;;;;2.03;0.80;;;9.00;1.00;;;;;;8372342;28;20332;-82
2023/03/16 15:20:32;;;;;;;3.53;0.93;;;9.00;1.00;;;;;;8365864;28;20190;-80
2023/03/16 15:24:32;;;;;;;2.23;0.80;;;8.90;1.00;;;;;;8362441;28;20182;-80
2023/03/16 15:28:33;;;;;;;2.47;1.03;;;8.80;1.00;;;;;;8370697;28;20214;-81
2023/03/16 15:32:34;;;;;;;2.53;1.07;;;8.70;1.00;;;;;;8372442;28;20276;-81
2023/03/16 15:36:35;;;;;;;3.50;1.07;;;8.60;1.00;;;;;;8366336;28;20209;-81
2023/03/16 15:40:38;;;;;;;4.20;1.57;;;8.60;1.00;;;;;;8368636;28;20193;-80
2023/03/16 15:44:39;;;;;;;2.40;1.03;;;8.50;1.00;;;;;;8368048;28;20185;-80
2023/03/16 15:48:41;;;;;;;2.70;1.17;;;8.40;1.00;;;;;;8370781;28;20189;-81
2023/03/16 15:52:45;;;;;;;2.90;1.20;;;8.20;1.00;;;;;;8361819;28;20185;-80
2023/03/16 15:56:46;;;;;;;1.80;1.03;;;8.10;1.00;;;;;;8370905;28;20232;-80
2023/03/16 16:00:48;;;;;;;2.90;1.40;;;8.00;1.00;;;;;;8366524;28;20272;-80
2023/03/16 16:04:48;;;;;;;4.03;1.30;;;7.90;1.00;;;;;;8376713;28;20173;-80
2023/03/16 16:08:49;;;;;;;1.80;1.00;;;7.80;1.00;;;;;;8390824;28;20193;-80
2023/03/16 16:12:53;;;;;;;2.80;1.30;;;7.70;1.00;;;;;;8396551;28;20469;-80
2023/03/16 16:16:54;;;;;;;4.20;1.47;;;7.60;1.00;;;;;;8406800;28;20200;-80
2023/03/16 16:21:00;;;;;;;3.70;1.20;;;7.50;1.00;;;;;;8409242;28;20190;-80
2023/03/16 16:25:04;;;;;;;3.40;1.50;;;7.40;1.00;;;;;;8411947;28;20182;-81
2023/03/16 16:29:15;;;;;;;3.70;1.33;;;7.20;1.00;;;;;;8409943;28;20198;-80
2023/03/16 16:33:23;;;;;;;5.57;1.70;;;7.00;1.00;;;;;;8413729;28;20174;-80
2023/03/16 16:37:24;;;;;;;4.63;1.93;;;6.80;1.00;;;;;;8390532;28;20221;-80
2023/03/16 16:41:30;;;;;;;3.90;1.50;;;6.60;1.00;;;;;;8370746;28;20260;-79
2023/03/16 16:45:31;;;;;;;3.60;1.63;;;6.50;1.00;;;;;;8374249;28;20533;-79
2023/03/16 16:49:33;;;;;;;2.43;1.40;;;6.10;1.00;;;;;;8369957;28;20285;-79
2023/03/16 16:53:34;;;;;;;2.33;1.23;;;5.80;1.00;;;;;;8383080;28;20220;-78
2023/03/16 16:57:36;;;;;;;2.20;1.30;;;5.40;1.00;;;;;;8369988;28;20206;-80
2023/03/16 17:01:37;;;;;;;3.53;1.50;;;4.90;1.00;;;;;;8352756;28;20196;-80
2023/03/16 17:05:38;;;;;;;2.10;0.93;;;4.50;1.00;;;;;;8365208;28;20243;-79
2023/03/16 17:09:39;;;;;;;4.07;1.40;;;4.10;1.00;;;;;;8372350;28;20193;-80
2023/03/16 17:13:39;;;;;;;1.37;1.00;;;3.80;1.00;;;;;;8374593;28;20177;-79
2023/03/16 17:17:42;;;;;;;3.40;1.17;;;3.50;6.60;;;;;;8377342;28;20209;-79
2023/03/16 17:21:44;;;;;;;2.93;1.03;;;3.10;36.30;;;;;;8369072;28;20174;-79
2023/03/16 17:25:45;;;;;;;1.00;0.80;;;2.90;54.70;;;;;;8373614;28;20196;-79
2023/03/16 17:29:45;;;;;;;2.97;1.10;;;2.60;81.30;;;;;;8373212;28;20188;-82
2023/03/16 17:33:46;;;;;;;1.50;1.20;;;2.40;99.90;;;;;;8374489;28;20193;-82
2023/03/16 17:37:48;;;;;;;2.97;1.10;;;2.20;99.90;;;;;;8377476;28;20201;-83
2023/03/16 17:42:02;;;;;;;1.27;0.90;;;2.00;99.90;;;;;;8371840;28;20187;-82
2023/03/16 17:46:04;;;;;;;3.53;1.23;;;1.80;99.90;;;;;;8368806;28;20230;-82
2023/03/16 17:50:19;;;;;;;2.90;1.23;;;1.60;99.90;;;;;;8369409;28;20192;-82
2023/03/16 17:54:20;;;;;;;3.73;1.73;;;1.30;99.90;;;;;;8370455;28;20244;-82
2023/03/16 17:58:27;;;;;;;2.80;1.57;;;1.10;99.90;;;;;;8377055;28;20213;-82
2023/03/16 18:02:52;;;;;;;2.73;1.23;;;0.90;99.90;;;;;;8370021;28;20182;-82
2023/03/16 18:06:54;;;;;;;3.50;1.40;;;0.70;99.90;;;;;;8373473;28;20185;-82
2023/03/16 18:11:00;;;;;;;4.90;2.17;;;0.50;99.90;;;;;;8374794;28;20201;-84
2023/03/16 18:15:02;;;;;;;4.17;2.03;;;0.30;99.90;;;;;;8372077;28;20182;-82
2023/03/16 18:19:06;;;;;;;3.90;2.33;;;0.20;99.90;;;;;;8367692;28;20193;-85
2023/03/16 18:23:32;;;;;;;9.90;5.60;;;0.10;99.90;;;;;;8373150;28;20214;-84
2023/03/16 18:27:33;;;;;;;9.33;4.57;;;0.10;99.90;;;;;;8367656;28;20254;-84
2023/03/16 18:31:34;;;;;;;11.63;5.53;;;0.20;99.90;;;;;;8372268;28;20185;-84
2023/03/16 18:35:36;;;;;;;11.13;5.70;;;0.20;99.90;;;;;;8371832;28;20233;-84
2023/03/16 18:39:36;;;;;;;12.33;6.47;;;0.10;99.90;;;;;;8367935;28;20186;-84
2023/03/16 18:43:37;;;;;;;9.90;5.57;;;0.10;99.90;;;;;;8365666;28;20205;-84
2023/03/16 18:47:42;;;;;;;16.80;6.10;;;0.00;99.90;;;;;;8362824;28;20185;-84
2023/03/16 18:51:47;;;;;;;9.90;5.67;;;0.00;99.90;;;;;;8374939;28;20196;-83
2023/03/16 18:55:49;;;;;;;9.73;5.40;;;-0.10;99.90;;;;;;8381233;28;20212;-84
2023/03/16 18:59:50;;;;;;;10.77;5.63;;;-0.10;99.90;;;;;;8369301;28;20189;-84
2023/03/16 19:03:52;;;;;;;11.07;5.10;;;-0.10;99.90;;;;;;8365836;28;20228;-84
2023/03/16 19:07:53;;;;;;;12.23;5.50;;;-0.20;99.90;;;;;;8369100;28;20178;-84
2023/03/16 19:11:54;;;;;;;11.13;5.97;;;-0.30;99.90;;;;;;8371322;28;20216;-84
2023/03/16 19:15:56;;;;;;;14.63;6.67;;;-0.40;99.90;;;;;;8367212;28;20214;-84
2023/03/16 19:19:57;;;;;;;17.20;7.00;;;-0.40;99.90;;;;;;8368651;28;20204;-84
2023/03/16 19:24:01;;;;;;;16.20;7.77;;;-0.50;99.90;;;;;;8368703;28;20177;-85
2023/03/16 19:28:04;;;;;;;14.60;6.80;;;-0.50;99.90;;;;;;8375235;28;20178;-85
2023/03/16 19:32:05;;;;;;;17.87;7.53;;;-0.60;99.90;;;;;;8374915;28;20188;-85
2023/03/16 19:36:12;;;;;;;14.50;6.80;;;-0.70;99.90;;;;;;8377578;28;20219;-84
2023/03/16 19:40:16;;;;;;;15.97;6.20;;;-0.80;99.90;;;;;;8379152;28;20181;-83
2023/03/16 19:44:20;;;;;;;15.63;7.97;;;-0.90;99.90;;;;;;8377856;28;20591;-85
2023/03/16 19:48:32;;;;;;;23.07;8.23;;;-0.90;99.90;;;;;;8373948;28;20185;-84
2023/03/16 19:52:33;;;;;;;17.70;8.27;;;-0.90;99.90;;;;;;8373648;28;20244;-84
2023/03/16 19:56:33;;;;;;;17.87;8.10;;;-1.00;99.90;;;;;;8371726;28;20213;-84
2023/03/16 20:00:34;;;;;;;19.47;8.73;;;-1.00;99.90;;;;;;8366399;28;20187;-84
2023/03/16 20:04:36;;;;;;;16.50;8.03;;;-1.00;99.90;;;;;;8363258;28;20288;-84
2023/03/16 20:08:37;;;;;;;18.33;8.43;;;-0.90;99.90;;;;;;8363725;28;20193;-84
2023/03/16 20:12:41;;;;;;;14.37;7.20;;;-0.70;99.90;;;;;;8365265;28;20223;-84
2023/03/16 20:16:43;;;;;;;15.20;6.80;;;-0.60;99.90;;;;;;8365324;28;20209;-83
2023/03/16 20:20:46;;;;;;;13.87;6.40;;;-0.50;99.90;;;;;;8372715;28;20185;-84
2023/03/16 20:24:48;;;;;;;11.77;6.00;;;-0.40;99.90;;;;;;8385683;28;20196;-84
2023/03/16 20:28:49;;;;;;;10.37;4.90;;;-0.20;99.90;;;;;;8369043;28;20189;-84
2023/03/16 20:32:50;;;;;;;10.83;4.90;;;0.10;99.90;;;;;;8364230;28;20216;-84
2023/03/16 20:36:51;;;;;;;9.20;5.17;;;0.30;99.90;;;;;;8366001;28;20615;-84
2023/03/16 20:40:53;;;;;;;9.17;4.47;;;0.50;99.90;;;;;;8368075;28;20189;-84
2023/03/16 20:44:55;;;;;;;10.07;3.97;;;0.70;90.50;;;;;;8375038;28;20177;-84
2023/03/16 20:48:57;;;;;;;8.23;3.47;;;0.90;43.20;;;;;;8374337;28;20470;-84
2023/03/16 20:52:58;;;;;;;10.40;4.27;;;1.10;24.00;;;;;;8373511;28;20268;-84
2023/03/16 20:57:00;;;;;;;7.97;3.40;;;1.20;16.80;;;;;;8370952;28;20208;-84
2023/03/16 21:01:02;;;;;;;10.43;4.57;;;1.30;12.10;;;;;;8372101;28;20273;-84
2023/03/16 21:05:06;;;;;;;10.73;5.20;;;1.40;12.50;;;;;;8370359;28;20180;-85
2023/03/16 21:09:08;;;;;;;9.00;4.53;;;1.40;20.00;;;;;;8374919;28;20185;-81
2023/03/16 21:13:31;;;;;;;12.30;5.03;;;1.40;25.30;;;;;;8367560;28;20276;-81
2023/03/16 21:17:36;;;;;;;13.03;6.30;;;1.30;38.90;;;;;;8371005;28;20215;-81
2023/03/16 21:21:36;;;;;;;12.17;6.27;;;1.30;68.50;;;;;;8372062;28;20186;-81
2023/03/16 21:26:00;;;;;;;13.50;5.70;;;1.30;80.50;;;;;;8373741;28;20196;-82